Time;durP1;ratioP1;P1;durP2;ratioP2;P2;SDS_P1;SDS_P2;PMS_P1;PMS_P2;Temp;Humidity;BMP_temperature;BMP_pressure;BME280_temperature;BME280_humidity;BME280_pressure;Samples;Min_cycle;Max_cycle;Signal;HPM_P1;HPM_P2
2021/04/05 00:01:28;;;;;;;14.50;9.63;;;3.10;93.30;;;;;;5113177;28;20119;-78
2021/04/05 00:03:54;;;;;;;10.15;7.80;;;3.10;93.30;;;;;;5112957;28;20088;-78
2021/04/05 00:06:21;;;;;;;14.07;9.38;;;3.10;93.20;;;;;;5114473;28;20415;-79
2021/04/05 00:08:47;;;;;;;13.70;8.73;;;3.10;93.50;;;;;;5112508;28;20086;-79
2021/04/05 00:11:14;;;;;;;14.40;9.30;;;3.10;93.70;;;;;;5114669;28;20055;-78
2021/04/05 00:13:43;;;;;;;12.38;8.63;;;3.10;93.40;;;;;;5112749;28;20020;-79
2021/04/05 00:16:10;;;;;;;13.10;9.45;;;3.10;93.50;;;;;;5112552;28;20024;-79
2021/04/05 00:18:36;;;;;;;14.63;9.30;;;3.10;93.30;;;;;;5114027;28;20019;-78
2021/04/05 00:21:10;;;;;;;13.88;9.52;;;3.00;93.70;;;;;;5112554;28;20434;-78
2021/04/05 00:23:36;;;;;;;15.32;10.68;;;3.00;93.80;;;;;;5112377;28;20031;-77
2021/04/05 00:26:03;;;;;;;14.35;8.75;;;3.00;94.00;;;;;;5115834;28;20117;-77
2021/04/05 00:28:30;;;;;;;11.65;8.65;;;3.00;93.70;;;;;;5117877;28;20020;-77
2021/04/05 00:30:56;;;;;;;12.05;8.75;;;3.00;93.60;;;;;;5118065;28;20028;-77
2021/04/05 00:33:22;;;;;;;17.15;11.02;;;3.00;93.50;;;;;;5117836;28;20026;-79
2021/04/05 00:35:48;;;;;;;15.23;11.00;;;2.90;94.00;;;;;;5116540;28;20019;-78
2021/04/05 00:38:14;;;;;;;17.70;11.50;;;2.90;93.70;;;;;;5117881;28;20028;-78
2021/04/05 00:40:54;;;;;;;16.40;11.55;;;2.90;93.60;;;;;;5116425;28;20054;-77
2021/04/05 00:43:20;;;;;;;16.97;11.80;;;2.90;93.50;;;;;;5116135;28;20031;-77
2021/04/05 00:45:46;;;;;;;20.05;13.57;;;2.90;93.50;;;;;;5116059;28;20260;-77
2021/04/05 00:48:13;;;;;;;13.73;10.48;;;2.80;93.60;;;;;;5116601;28;20473;-77
2021/04/05 00:50:52;;;;;;;19.33;12.45;;;2.80;93.50;;;;;;5116102;28;20122;-77
2021/04/05 00:53:21;;;;;;;15.05;10.63;;;2.80;93.70;;;;;;5116052;28;20015;-77
2021/04/05 00:55:47;;;;;;;15.48;9.90;;;2.80;93.50;;;;;;5116204;28;20027;-77
2021/04/05 00:58:14;;;;;;;13.10;9.60;;;2.70;93.50;;;;;;5115985;28;20016;-76
2021/04/05 01:00:55;;;;;;;14.65;9.20;;;2.80;93.50;;;;;;5117282;28;20020;-77
2021/04/05 01:03:23;;;;;;;14.00;9.93;;;2.70;93.50;;;;;;5115930;28;20031;-78
2021/04/05 01:06:17;;;;;;;13.35;9.32;;;2.70;93.50;;;;;;5115905;28;20031;-77
2021/04/05 01:08:43;;;;;;;12.43;8.93;;;2.70;93.50;;;;;;5092802;28;20059;-78
2021/04/05 01:11:10;;;;;;;15.32;9.88;;;2.60;93.40;;;;;;5117063;28;20108;-77
2021/04/05 01:13:36;;;;;;;16.17;10.30;;;2.60;93.40;;;;;;5117001;28;20098;-77
2021/04/05 01:16:03;;;;;;;16.52;9.43;;;2.60;93.40;;;;;;5115496;28;20118;-77
2021/04/05 01:18:30;;;;;;;13.93;9.73;;;2.60;93.40;;;;;;5115741;28;20024;-77
2021/04/05 01:20:56;;;;;;;16.98;9.93;;;2.60;93.30;;;;;;5115761;28;20422;-77
2021/04/05 01:23:22;;;;;;;17.13;10.05;;;2.60;93.30;;;;;;5117266;28;20035;-77
2021/04/05 01:25:49;;;;;;;13.32;8.82;;;2.60;93.30;;;;;;5115885;28;20507;-77
2021/04/05 01:28:14;;;;;;;16.23;10.93;;;2.60;93.30;;;;;;5115998;28;20072;-77
2021/04/05 01:30:50;;;;;;;20.75;12.32;;;2.60;93.30;;;;;;5115504;28;20118;-78
2021/04/05 01:33:35;;;;;;;17.98;11.18;;;2.60;93.40;;;;;;5115731;28;20031;-77
2021/04/05 01:36:07;;;;;;;15.85;10.73;;;2.60;93.30;;;;;;5115738;28;20027;-78
2021/04/05 01:38:36;;;;;;;16.10;10.30;;;2.60;93.20;;;;;;5116207;28;20466;-77
2021/04/05 01:41:08;;;;;;;17.13;10.50;;;2.60;93.20;;;;;;5115816;28;20020;-77
2021/04/05 01:43:34;;;;;;;17.48;10.43;;;2.50;93.20;;;;;;5115510;28;20020;-77
2021/04/05 01:46:01;;;;;;;24.90;12.80;;;2.50;93.30;;;;;;5115429;28;20389;-79
2021/04/05 01:48:29;;;;;;;17.83;11.05;;;2.40;93.30;;;;;;5115431;28;20541;-78
2021/04/05 01:51:08;;;;;;;23.30;13.13;;;2.40;93.30;;;;;;5115000;28;20381;-78
2021/04/05 01:53:35;;;;;;;22.20;12.48;;;2.30;93.30;;;;;;5115204;28;20023;-78
2021/04/05 01:56:06;;;;;;;22.10;13.55;;;2.30;93.30;;;;;;5116693;28;20019;-78
2021/04/05 01:58:37;;;;;;;24.08;13.23;;;2.30;93.40;;;;;;5116800;28;20035;-78
2021/04/05 02:01:15;;;;;;;23.02;13.00;;;2.20;93.40;;;;;;5116446;28;20046;-78
2021/04/05 02:03:41;;;;;;;24.05;13.15;;;2.20;93.40;;;;;;5116201;28;20015;-79
2021/04/05 02:06:16;;;;;;;19.73;12.48;;;2.10;93.40;;;;;;5116368;28;20034;-77
2021/04/05 02:08:44;;;;;;;20.98;13.15;;;2.10;93.60;;;;;;5114702;28;20112;-78
2021/04/05 02:11:19;;;;;;;19.58;12.75;;;2.00;93.70;;;;;;5114953;28;20016;-77
2021/04/05 02:13:47;;;;;;;19.80;12.88;;;1.90;93.70;;;;;;5116215;28;20023;-77
2021/04/05 02:16:17;;;;;;;23.10;13.23;;;1.80;93.60;;;;;;5114759;28;20577;-77
2021/04/05 02:18:44;;;;;;;20.80;12.57;;;1.80;93.70;;;;;;5114748;28;20027;-77
2021/04/05 02:21:24;;;;;;;24.88;13.88;;;1.80;93.70;;;;;;5114627;28;20020;-77
2021/04/05 02:23:51;;;;;;;21.83;12.50;;;1.70;93.70;;;;;;5114430;28;20113;-77
2021/04/05 02:26:21;;;;;;;19.85;12.32;;;1.70;93.80;;;;;;5114177;28;20123;-77
2021/04/05 02:28:52;;;;;;;21.13;13.20;;;1.70;93.80;;;;;;5113908;28;20024;-77
2021/04/05 02:31:22;;;;;;;22.23;13.02;;;1.70;93.70;;;;;;5115064;28;20103;-77
2021/04/05 02:33:50;;;;;;;24.55;14.82;;;1.70;93.70;;;;;;5114078;28;20054;-77
2021/04/05 02:36:18;;;;;;;20.83;13.55;;;1.60;93.60;;;;;;5115527;28;20073;-77
2021/04/05 02:38:47;;;;;;;24.70;15.38;;;1.70;93.70;;;;;;5115554;28;20031;-77
2021/04/05 02:41:15;;;;;;;26.95;16.63;;;1.60;93.70;;;;;;5115360;28;20047;-77
2021/04/05 02:43:41;;;;;;;34.72;18.23;;;1.60;93.70;;;;;;5114038;28;20107;-77
2021/04/05 02:46:12;;;;;;;29.40;17.33;;;1.60;93.70;;;;;;5113676;28;20019;-77
2021/04/05 02:48:43;;;;;;;30.80;18.02;;;1.50;93.70;;;;;;5114066;28;20020;-77
2021/04/05 02:51:09;;;;;;;30.65;17.45;;;1.40;93.70;;;;;;5113954;28;20041;-77
2021/04/05 02:53:46;;;;;;;26.38;16.00;;;1.40;93.70;;;;;;5114794;28;20440;-77
2021/04/05 02:56:13;;;;;;;31.10;16.10;;;1.40;93.70;;;;;;5113698;28;20030;-78
2021/04/05 02:58:41;;;;;;;23.10;15.05;;;1.30;93.70;;;;;;5113523;28;20024;-78
2021/04/05 03:01:08;;;;;;;23.75;15.18;;;1.30;93.70;;;;;;5113481;28;20477;-79
2021/04/05 03:03:37;;;;;;;31.85;17.38;;;1.30;93.70;;;;;;5114850;28;20107;-78
2021/04/05 03:06:05;;;;;;;27.63;16.27;;;1.20;93.80;;;;;;5113372;28;20058;-79
2021/04/05 03:08:31;;;;;;;27.17;16.10;;;1.20;93.70;;;;;;5112143;28;20039;-78
2021/04/05 03:10:57;;;;;;;28.02;15.98;;;1.10;93.70;;;;;;5112955;28;20385;-79
2021/04/05 03:13:24;;;;;;;25.77;14.77;;;1.10;93.80;;;;;;5113707;28;20040;-78
2021/04/05 03:15:52;;;;;;;30.33;15.18;;;1.10;93.80;;;;;;5113206;28;20024;-79
2021/04/05 03:18:20;;;;;;;32.83;19.20;;;1.10;93.80;;;;;;5114020;27;20465;-78
2021/04/05 03:20:47;;;;;;;32.65;18.60;;;1.10;93.90;;;;;;5112112;28;20445;-78
2021/04/05 03:23:14;;;;;;;27.40;17.48;;;1.00;94.20;;;;;;5113198;28;20118;-78
2021/04/05 03:25:40;;;;;;;30.75;17.05;;;1.00;94.10;;;;;;5114370;28;20022;-78
2021/04/05 03:28:06;;;;;;;33.13;18.13;;;0.90;93.90;;;;;;5114207;28;20051;-78
2021/04/05 03:30:45;;;;;;;28.95;17.25;;;0.90;94.00;;;;;;5112938;28;20063;-78
2021/04/05 03:33:21;;;;;;;31.00;18.58;;;0.90;94.10;;;;;;5113316;28;20046;-78
2021/04/05 03:35:54;;;;;;;30.65;18.85;;;0.90;94.20;;;;;;5113031;28;20047;-78
2021/04/05 03:38:20;;;;;;;35.15;19.52;;;0.90;94.20;;;;;;5113115;28;20032;-78
2021/04/05 03:40:46;;;;;;;36.13;19.73;;;0.80;94.20;;;;;;5113154;28;20030;-79
2021/04/05 03:43:34;;;;;;;35.30;20.55;;;0.80;94.30;;;;;;5112953;28;20072;-78
2021/04/05 03:46:05;;;;;;;34.72;19.27;;;0.80;94.40;;;;;;5113890;28;20034;-79
2021/04/05 03:48:48;;;;;;;30.95;18.33;;;0.80;94.60;;;;;;5114292;28;20019;-79
2021/04/05 03:51:23;;;;;;;32.55;18.58;;;0.80;94.40;;;;;;5101741;28;20477;-79
2021/04/05 03:54:08;;;;;;;35.08;20.33;;;0.80;94.40;;;;;;5112904;28;20055;-79
2021/04/05 03:56:43;;;;;;;35.22;21.40;;;0.80;94.60;;;;;;5112931;28;20019;-79
2021/04/05 03:59:24;;;;;;;37.00;20.63;;;0.80;94.60;;;;;;5112610;28;20027;-71
2021/04/05 04:01:54;;;;;;;47.22;22.13;;;0.80;94.60;;;;;;5113189;28;20031;-71
2021/04/05 04:04:26;;;;;;;34.90;19.85;;;0.80;94.80;;;;;;5113424;28;20022;-71
2021/04/05 04:07:04;;;;;;;36.80;20.73;;;0.80;95.00;;;;;;5112128;28;20489;-71
2021/04/05 04:09:32;;;;;;;44.45;22.20;;;0.80;95.00;;;;;;5112233;28;20062;-71
2021/04/05 04:12:00;;;;;;;36.55;19.95;;;0.80;95.00;;;;;;5112536;28;20515;-71
2021/04/05 04:14:27;;;;;;;34.45;19.63;;;0.80;94.80;;;;;;5113581;28;20032;-71
2021/04/05 04:16:54;;;;;;;43.55;24.35;;;0.90;94.80;;;;;;5113644;28;20389;-71
2021/04/05 04:19:21;;;;;;;59.22;29.83;;;0.90;94.90;;;;;;5113714;28;20031;-71
2021/04/05 04:21:48;;;;;;;55.20;31.98;;;1.00;95.00;;;;;;5112240;28;20039;-71
2021/04/05 04:24:15;;;;;;;59.85;32.17;;;1.00;95.10;;;;;;5110599;28;20043;-71
2021/04/05 04:26:42;;;;;;;55.03;32.88;;;1.10;95.10;;;;;;5110436;28;20028;-71
2021/04/05 04:29:22;;;;;;;60.08;32.47;;;1.20;95.00;;;;;;5110237;28;20116;-71
2021/04/05 04:31:48;;;;;;;53.42;30.45;;;1.30;95.10;;;;;;5110249;28;20515;-71
2021/04/05 04:34:18;;;;;;;47.05;26.23;;;1.30;95.20;;;;;;5112020;28;20113;-71
2021/04/05 04:36:45;;;;;;;44.10;24.02;;;1.50;95.00;;;;;;5111994;28;20043;-71
2021/04/05 04:39:11;;;;;;;39.55;22.88;;;1.60;94.90;;;;;;5111737;28;20036;-71
2021/04/05 04:41:40;;;;;;;39.22;21.92;;;1.70;94.80;;;;;;5110821;28;20499;-71
2021/04/05 04:44:06;;;;;;;39.22;22.75;;;1.80;94.70;;;;;;5112115;28;20034;-71
2021/04/05 04:46:32;;;;;;;34.92;21.33;;;1.90;94.60;;;;;;5110602;28;20073;-71
2021/04/05 04:49:00;;;;;;;36.42;21.85;;;2.10;94.60;;;;;;5111230;28;20031;-71
2021/04/05 04:51:26;;;;;;;37.03;24.35;;;2.20;94.40;;;;;;5110501;28;20081;-70
2021/04/05 04:53:57;;;;;;;45.28;26.90;;;2.30;94.40;;;;;;5127059;28;20496;-70
2021/04/05 04:56:23;;;;;;;;;;;2.40;94.40;;;;;;5131951;28;20127;-70
2021/04/05 04:58:49;;;;;;;48.70;26.40;;;2.50;95.10;;;;;;5126376;28;19983;-70
2021/04/05 05:01:16;;;;;;;45.97;26.30;;;2.60;94.50;;;;;;5109652;28;20030;-70
2021/04/05 05:03:52;;;;;;;43.50;25.73;;;2.70;94.40;;;;;;5110405;28;20028;-70
2021/04/05 05:06:20;;;;;;;45.33;26.52;;;2.90;94.20;;;;;;5111808;28;20023;-74
2021/04/05 05:08:46;;;;;;;53.25;29.10;;;3.00;94.00;;;;;;5110804;28;20101;-74
2021/04/05 05:11:13;;;;;;;54.75;32.55;;;3.10;93.90;;;;;;5111369;28;20092;-77
2021/04/05 05:13:40;;;;;;;50.72;29.45;;;3.20;93.80;;;;;;5115089;28;20453;-77
2021/04/05 05:16:06;;;;;;;51.97;27.30;;;3.30;93.80;;;;;;5115562;28;20392;-77
2021/04/05 05:18:34;;;;;;;47.00;27.58;;;3.50;93.70;;;;;;5115012;28;20473;-76
2021/04/05 05:21:07;;;;;;;57.88;30.90;;;3.60;93.60;;;;;;5116585;28;20035;-77
2021/04/05 05:23:36;;;;;;;54.38;27.20;;;3.70;94.10;;;;;;5115043;28;20034;-77
2021/04/05 05:26:03;;;;;;;34.15;20.02;;;3.80;94.00;;;;;;5115073;28;20088;-76
2021/04/05 05:28:33;;;;;;;27.42;17.40;;;4.00;94.30;;;;;;5114502;28;20035;-80
2021/04/05 05:31:00;;;;;;;28.17;19.77;;;4.10;94.20;;;;;;5116157;28;20031;-78
2021/04/05 05:33:26;;;;;;;28.13;18.42;;;4.10;94.20;;;;;;5116216;28;20016;-79
2021/04/05 05:35:52;;;;;;;28.25;19.00;;;4.20;94.30;;;;;;5115976;28;20020;-75
2021/04/05 05:38:22;;;;;;;49.42;31.83;;;4.30;94.20;;;;;;5114423;28;20069;-74
2021/04/05 05:40:49;;;;;;;30.80;20.67;;;4.40;94.30;;;;;;5114431;28;20023;-80
2021/04/05 05:44:07;;;;;;;45.05;27.27;;;4.50;94.10;;;;;;5114269;28;20051;-77
2021/04/05 05:46:50;;;;;;;32.88;20.27;;;4.60;93.90;;;;;;5016090;28;20437;-71
2021/04/05 05:49:36;;;;;;;31.35;19.08;;;4.80;93.90;;;;;;5031843;28;20029;-71
2021/04/05 05:52:11;;;;;;;32.97;20.02;;;4.80;93.80;;;;;;5091271;28;20075;-70
2021/04/05 05:55:21;;;;;;;21.15;15.02;;;5.00;93.40;;;;;;5101828;28;20024;-70
2021/04/05 05:58:29;;;;;;;24.27;14.23;;;4.90;93.00;;;;;;5068975;28;20028;-70
2021/04/05 06:01:14;;;;;;;22.50;14.85;;;4.90;93.20;;;;;;5066708;28;20029;-77
2021/04/05 06:04:18;;;;;;;24.67;16.75;;;4.90;93.10;;;;;;5111544;28;20020;-76
2021/04/05 06:06:59;;;;;;;19.85;14.13;;;5.00;92.90;;;;;;5078352;28;20035;-77
2021/04/05 06:09:49;;;;;;;20.27;12.80;;;5.10;92.90;;;;;;5113902;28;20047;-76
2021/04/05 06:12:45;;;;;;;18.63;12.77;;;5.20;92.40;;;;;;5115133;28;20028;-76
2021/04/05 06:15:26;;;;;;;17.08;11.93;;;5.30;92.20;;;;;;5096225;28;20477;-74
2021/04/05 06:18:11;;;;;;;18.27;11.93;;;5.30;92.10;;;;;;5115177;28;20481;-75
2021/04/05 06:20:54;;;;;;;18.98;12.48;;;5.50;91.80;;;;;;5113260;28;20385;-75
2021/04/05 06:23:51;;;;;;;20.52;13.43;;;5.60;91.70;;;;;;5115434;28;20023;-75
2021/04/05 06:26:40;;;;;;;24.23;15.55;;;5.60;91.30;;;;;;5114244;28;20110;-74
2021/04/05 06:29:35;;;;;;;14.80;8.85;;;5.60;91.20;;;;;;5114322;28;20035;-72
2021/04/05 06:32:32;;;;;;;14.73;9.55;;;5.70;90.60;;;;;;5114255;28;20072;-72
2021/04/05 06:35:22;;;;;;;18.63;11.70;;;5.60;90.40;;;;;;5114088;28;20016;-72
2021/04/05 06:37:58;;;;;;;20.30;14.25;;;5.60;90.90;;;;;;5114897;28;20016;-72
2021/04/05 06:40:29;;;;;;;24.73;13.07;;;5.70;91.10;;;;;;5111354;28;20043;-72
2021/04/05 06:43:30;;;;;;;20.70;14.57;;;5.80;91.20;;;;;;5112300;28;20036;-72
2021/04/05 06:46:21;;;;;;;18.30;13.10;;;6.00;90.90;;;;;;5113251;28;20043;-72
2021/04/05 06:49:08;;;;;;;23.88;14.05;;;6.00;90.90;;;;;;5114481;28;20023;-73
2021/04/05 06:51:52;;;;;;;19.33;13.90;;;6.10;90.70;;;;;;5113846;28;20035;-73
2021/04/05 06:54:42;;;;;;;27.27;16.50;;;6.10;90.10;;;;;;5114498;28;20092;-72
2021/04/05 06:57:26;;;;;;;14.60;10.50;;;6.10;89.80;;;;;;5113592;28;20052;-72
2021/04/05 07:00:20;;;;;;;22.65;13.90;;;6.20;89.90;;;;;;5113768;28;20783;-72
2021/04/05 07:02:56;;;;;;;21.27;12.38;;;6.10;89.40;;;;;;5103647;28;20512;-72
2021/04/05 07:05:45;;;;;;;20.67;14.25;;;6.10;89.40;;;;;;5106229;28;20027;-72
2021/04/05 07:08:44;;;;;;;22.52;14.23;;;6.10;89.80;;;;;;5113391;28;20469;-71
2021/04/05 07:11:27;;;;;;;23.60;13.90;;;6.10;90.10;;;;;;5113762;28;20038;-72
2021/04/05 07:13:56;;;;;;;18.70;12.70;;;6.20;90.00;;;;;;5113714;28;20040;-72
2021/04/05 07:16:29;;;;;;;17.08;11.15;;;6.30;90.00;;;;;;5113799;28;20028;-71
2021/04/05 07:19:37;;;;;;;18.52;12.13;;;6.30;89.70;;;;;;5096803;28;20072;-72
2021/04/05 07:22:22;;;;;;;22.23;12.40;;;6.40;89.40;;;;;;5034233;28;20057;-72
2021/04/05 07:25:00;;;;;;;18.17;11.70;;;6.50;87.00;;;;;;5105881;28;20042;-72
2021/04/05 07:27:56;;;;;;;13.40;9.18;;;6.50;88.80;;;;;;5112139;28;20027;-72
2021/04/05 07:30:42;;;;;;;11.95;8.82;;;6.60;87.40;;;;;;5112014;28;20027;-72
2021/04/05 07:33:32;;;;;;;15.82;10.55;;;6.70;86.30;;;;;;5070964;28;20035;-71
2021/04/05 07:36:12;;;;;;;16.33;9.70;;;6.70;86.20;;;;;;5111347;28;20469;-72
2021/04/05 07:38:48;;;;;;;;;;;6.80;86.60;;;;;;5113859;28;20069;-72
2021/04/05 07:41:32;;;;;;;16.83;10.13;;;6.80;85.40;;;;;;5111789;28;19953;-72
2021/04/05 07:44:40;;;;;;;16.95;10.75;;;6.90;85.80;;;;;;5111864;28;20024;-72
2021/04/05 07:47:21;;;;;;;16.67;10.52;;;6.90;84.30;;;;;;5111646;28;20469;-72
2021/04/05 07:49:58;;;;;;;;;;;7.00;85.50;;;;;;5113546;28;20145;-72
2021/04/05 07:52:46;;;;;;;13.45;9.00;;;7.00;83.30;;;;;;5111753;28;19911;-72
2021/04/05 07:55:13;;;;;;;13.40;9.55;;;7.00;83.80;;;;;;5111654;28;20019;-72
2021/04/05 07:58:09;;;;;;;12.18;7.82;;;7.00;84.10;;;;;;5111608;28;20484;-72
2021/04/05 08:01:14;;;;;;;16.77;10.40;;;7.10;84.40;;;;;;5111369;28;20470;-72
2021/04/05 08:03:51;;;;;;;14.98;10.23;;;7.10;85.10;;;;;;5112718;28;20027;-72
2021/04/05 08:06:20;;;;;;;19.35;11.02;;;7.10;85.70;;;;;;5111276;28;20031;-72
2021/04/05 08:09:00;;;;;;;15.32;10.75;;;7.20;85.40;;;;;;5111205;28;20512;-73
2021/04/05 08:11:42;;;;;;;18.00;11.68;;;7.20;85.30;;;;;;5111412;28;20024;-73
2021/04/05 08:14:23;;;;;;;19.95;12.98;;;7.20;84.50;;;;;;5111166;28;20015;-73
2021/04/05 08:17:01;;;;;;;;;;;7.30;85.70;;;;;;5111997;28;20016;-71
2021/04/05 08:19:44;;;;;;;20.55;11.80;;;7.40;84.70;;;;;;5111490;28;19904;-73
2021/04/05 08:22:38;;;;;;;20.05;12.38;;;7.50;84.00;;;;;;5112869;28;20028;-73
2021/04/05 08:25:07;;;;;;;17.73;11.13;;;7.50;84.40;;;;;;5111372;28;20042;-73
2021/04/05 08:28:46;;;;;;;17.80;10.55;;;7.50;83.50;;;;;;5112694;28;20031;-73
2021/04/05 08:31:46;;;;;;;16.58;10.18;;;7.50;82.10;;;;;;4974153;28;20030;-73
2021/04/05 08:34:46;;;;;;;15.33;10.43;;;7.70;82.90;;;;;;5033052;28;20025;-72
2021/04/05 08:37:30;;;;;;;11.98;8.30;;;7.70;83.20;;;;;;5111048;28;20806;-72
2021/04/05 08:40:20;;;;;;;13.55;8.57;;;7.80;82.70;;;;;;5111016;28;20050;-72
2021/04/05 08:42:52;;;;;;;19.63;10.77;;;7.80;82.10;;;;;;5109080;28;20358;-72
2021/04/05 08:45:23;;;;;;;10.68;7.70;;;7.90;80.70;;;;;;5111141;28;20024;-71
2021/04/05 08:48:03;;;;;;;12.40;7.38;;;8.00;80.50;;;;;;5115914;28;20031;-71
2021/04/05 08:50:33;;;;;;;8.32;6.57;;;8.00;78.40;;;;;;5115938;28;20059;-72
2021/04/05 08:53:02;;;;;;;9.30;6.72;;;8.10;78.60;;;;;;5115003;28;20032;-72
2021/04/05 08:55:29;;;;;;;9.55;6.88;;;8.10;79.00;;;;;;5114874;28;20034;-71
2021/04/05 08:58:14;;;;;;;14.90;7.95;;;8.30;78.40;;;;;;5114995;28;20397;-71
2021/04/05 09:00:47;;;;;;;15.75;8.75;;;8.30;76.80;;;;;;5114888;28;20078;-72
2021/04/05 09:03:20;;;;;;;7.75;6.43;;;8.30;75.60;;;;;;5115917;28;20051;-72
2021/04/05 09:05:47;;;;;;;29.88;16.02;;;8.30;76.40;;;;;;5114777;28;20879;-71
2021/04/05 09:08:14;;;;;;;10.25;6.80;;;8.30;74.70;;;;;;5114630;28;20051;-72
2021/04/05 09:11:04;;;;;;;10.55;7.80;;;8.20;75.90;;;;;;5114797;28;20757;-72
2021/04/05 09:13:49;;;;;;;7.65;5.75;;;8.20;75.10;;;;;;5116013;28;20043;-72
2021/04/05 09:16:24;;;;;;;11.95;6.78;;;8.20;75.90;;;;;;5114614;28;20035;-72
2021/04/05 09:19:21;;;;;;;9.23;7.32;;;8.10;76.20;;;;;;5114437;28;20465;-72
2021/04/05 09:21:52;;;;;;;8.40;6.25;;;8.30;74.60;;;;;;5115328;28;20111;-72
2021/04/05 09:24:49;;;;;;;8.43;6.43;;;8.30;76.50;;;;;;5116198;28;20171;-72
2021/04/05 09:27:37;;;;;;;8.68;5.90;;;8.50;76.60;;;;;;5116543;28;20024;-72
2021/04/05 09:30:49;;;;;;;7.45;5.70;;;8.70;76.50;;;;;;5115877;28;20652;-73
2021/04/05 09:33:49;;;;;;;7.95;5.65;;;8.90;73.90;;;;;;5116029;28;20027;-73
2021/04/05 09:36:48;;;;;;;7.43;5.78;;;9.10;72.80;;;;;;5115943;28;20475;-72
2021/04/05 09:39:27;;;;;;;8.48;6.18;;;9.20;71.90;;;;;;5116041;28;20081;-73
2021/04/05 09:42:26;;;;;;;7.55;4.70;;;9.20;71.10;;;;;;5117106;28;20377;-72
2021/04/05 09:45:06;;;;;;;7.88;5.40;;;9.40;71.90;;;;;;5115731;28;20038;-72
2021/04/05 09:48:01;;;;;;;;;;;9.50;73.30;;;;;;5116480;28;20031;-72
2021/04/05 09:50:48;;;;;;;7.70;5.80;;;9.50;68.50;;;;;;5115340;28;19914;-73
2021/04/05 09:53:35;;;;;;;7.15;5.60;;;9.50;69.90;;;;;;5115408;28;20047;-72
2021/04/05 09:56:10;;;;;;;9.73;6.03;;;9.50;68.20;;;;;;5117004;28;20087;-73
2021/04/05 09:58:45;;;;;;;6.22;5.00;;;9.40;70.60;;;;;;5114496;28;20020;-73
2021/04/05 10:01:19;;;;;;;6.32;4.75;;;9.40;71.30;;;;;;5115328;28;20376;-73
2021/04/05 10:03:49;;;;;;;8.30;5.43;;;9.50;72.10;;;;;;5115054;28;20020;-73
2021/04/05 10:06:19;;;;;;;5.05;4.53;;;9.50;71.20;;;;;;5098896;28;20138;-72
2021/04/05 10:08:49;;;;;;;9.68;5.68;;;9.60;71.80;;;;;;5114942;28;20044;-72
2021/04/05 10:11:16;;;;;;;6.65;4.82;;;9.50;70.40;;;;;;5115717;28;20023;-72
2021/04/05 10:13:48;;;;;;;5.47;4.55;;;9.50;69.50;;;;;;5115079;28;20469;-72
2021/04/05 10:16:21;;;;;;;7.75;5.32;;;9.60;68.10;;;;;;5115219;28;20023;-73
2021/04/05 10:18:49;;;;;;;8.07;4.50;;;9.60;67.00;;;;;;5114789;28;20375;-72
2021/04/05 10:21:16;;;;;;;5.32;4.22;;;9.70;70.20;;;;;;5114377;28;20106;-72
2021/04/05 10:23:43;;;;;;;4.72;4.00;;;9.90;67.50;;;;;;5114562;28;20102;-72
2021/04/05 10:26:12;;;;;;;4.80;4.30;;;9.90;66.50;;;;;;5114650;28;20035;-72
2021/04/05 10:28:39;;;;;;;7.25;4.20;;;10.00;66.60;;;;;;5113094;28;20032;-73
2021/04/05 10:31:08;;;;;;;5.65;4.38;;;10.10;65.60;;;;;;5114349;28;20051;-73
2021/04/05 10:33:41;;;;;;;4.75;3.78;;;10.10;65.70;;;;;;5112986;28;20024;-73
2021/04/05 10:36:10;;;;;;;5.93;4.40;;;10.20;64.30;;;;;;5114326;28;20016;-73
2021/04/05 10:38:37;;;;;;;4.22;3.53;;;10.30;65.70;;;;;;5113045;28;20027;-73
2021/04/05 10:41:09;;;;;;;6.95;4.07;;;10.40;66.00;;;;;;5113011;28;20039;-72
2021/04/05 10:43:48;;;;;;;5.20;4.05;;;10.50;65.00;;;;;;5114365;28;20020;-72
2021/04/05 10:46:25;;;;;;;6.22;4.70;;;10.70;65.70;;;;;;5112909;28;20469;-73
2021/04/05 10:48:58;;;;;;;7.60;4.47;;;10.80;64.40;;;;;;5113005;28;20038;-73
2021/04/05 10:51:37;;;;;;;6.22;4.90;;;11.00;63.90;;;;;;5112681;28;20031;-73
2021/04/05 10:54:07;;;;;;;8.23;4.70;;;11.10;64.10;;;;;;5114242;28;20759;-73
2021/04/05 10:56:40;;;;;;;9.63;5.40;;;11.20;62.90;;;;;;5112646;28;20024;-73
2021/04/05 10:59:24;;;;;;;5.78;5.18;;;11.20;63.70;;;;;;5112639;28;20026;-73
2021/04/05 11:01:56;;;;;;;10.95;6.15;;;11.40;63.50;;;;;;5112441;28;20100;-72
2021/04/05 11:04:25;;;;;;;6.30;5.03;;;11.30;59.50;;;;;;5096560;28;20401;-73
2021/04/05 11:06:52;;;;;;;7.38;5.57;;;11.50;62.20;;;;;;5095454;28;20069;-73
2021/04/05 11:09:20;;;;;;;6.68;5.07;;;11.60;61.00;;;;;;5111589;28;20043;-73
2021/04/05 11:11:52;;;;;;;7.72;5.32;;;11.80;61.30;;;;;;5113198;28;20026;-73
2021/04/05 11:14:20;;;;;;;6.32;5.13;;;11.80;60.90;;;;;;5113461;28;20024;-73
2021/04/05 11:16:55;;;;;;;6.40;4.95;;;11.70;59.20;;;;;;5113438;28;20044;-72
2021/04/05 11:19:50;;;;;;;6.50;5.07;;;11.70;57.30;;;;;;5112110;28;20030;-73
2021/04/05 11:22:19;;;;;;;7.97;5.25;;;11.70;58.00;;;;;;5113404;28;20020;-73
2021/04/05 11:24:52;;;;;;;11.65;6.07;;;11.70;58.00;;;;;;5115125;28;20031;-72
2021/04/05 11:27:26;;;;;;;12.88;7.07;;;11.80;57.60;;;;;;5113965;28;20031;-73
2021/04/05 11:29:55;;;;;;;9.98;7.18;;;11.80;58.90;;;;;;5114027;28;20051;-72
2021/04/05 11:32:27;;;;;;;14.82;9.00;;;11.90;59.20;;;;;;5114777;28;20369;-72
2021/04/05 11:34:56;;;;;;;13.98;7.63;;;11.90;58.30;;;;;;5115001;28;20032;-75
2021/04/05 11:37:26;;;;;;;22.13;8.60;;;12.00;58.70;;;;;;5113217;28;20512;-74
2021/04/05 11:40:18;;;;;;;10.38;7.78;;;12.00;57.60;;;;;;5114941;28;20526;-74
2021/04/05 11:42:47;;;;;;;16.80;10.70;;;12.10;56.90;;;;;;5113400;28;20047;-74
2021/04/05 11:45:28;;;;;;;22.30;11.95;;;12.20;58.40;;;;;;5096833;28;20035;-74
2021/04/05 11:47:56;;;;;;;14.65;9.02;;;11.90;56.70;;;;;;5113188;28;20034;-73
2021/04/05 11:50:26;;;;;;;11.75;8.23;;;11.70;57.10;;;;;;5113699;28;20080;-74
2021/04/05 11:52:55;;;;;;;16.70;9.05;;;11.60;57.30;;;;;;5113037;28;20023;-74
2021/04/05 11:55:29;;;;;;;15.93;9.38;;;11.50;58.40;;;;;;5115116;28;20023;-73
2021/04/05 11:58:19;;;;;;;16.50;9.60;;;11.50;59.10;;;;;;5113319;28;20035;-73
2021/04/05 12:00:56;;;;;;;12.40;7.68;;;11.40;59.20;;;;;;5114822;28;20088;-74
2021/04/05 12:03:36;;;;;;;10.07;6.63;;;11.40;59.10;;;;;;5113588;28;20024;-73
2021/04/05 12:06:04;;;;;;;17.00;8.50;;;11.30;59.00;;;;;;5113237;28;20030;-74
2021/04/05 12:09:07;;;;;;;10.75;7.18;;;11.10;58.70;;;;;;5113126;28;20124;-74
2021/04/05 12:11:46;;;;;;;14.23;7.05;;;11.20;58.80;;;;;;5088164;28;20489;-74
2021/04/05 12:14:21;;;;;;;20.95;10.13;;;11.20;59.00;;;;;;5096919;28;20119;-74
2021/04/05 12:16:53;;;;;;;15.10;8.98;;;11.10;58.50;;;;;;5108195;28;20038;-73
2021/04/05 12:19:34;;;;;;;14.02;9.60;;;11.10;58.50;;;;;;5113296;28;20051;-74
2021/04/05 12:22:01;;;;;;;21.45;10.27;;;10.90;57.10;;;;;;5109441;28;20027;-74
2021/04/05 12:24:35;;;;;;;14.90;9.60;;;10.90;58.30;;;;;;5113004;28;20028;-74
2021/04/05 12:27:08;;;;;;;20.38;9.93;;;10.90;59.80;;;;;;5109008;28;20019;-74
2021/04/05 12:29:34;;;;;;;22.20;10.15;;;11.00;59.40;;;;;;5094754;28;20032;-75
2021/04/05 12:32:03;;;;;;;15.63;9.55;;;11.10;60.10;;;;;;5112954;28;20040;-73
2021/04/05 12:34:35;;;;;;;18.17;9.80;;;11.20;59.40;;;;;;5111591;28;20020;-74
2021/04/05 12:37:09;;;;;;;14.80;8.30;;;11.30;59.30;;;;;;5111928;28;20423;-73
2021/04/05 12:39:36;;;;;;;13.13;7.97;;;11.30;57.80;;;;;;5112919;28;20106;-73
2021/04/05 12:42:08;;;;;;;10.25;6.25;;;11.40;57.40;;;;;;5111828;28;20396;-72
2021/04/05 12:44:35;;;;;;;23.42;13.20;;;11.40;56.70;;;;;;5112290;28;20439;-70
2021/04/05 12:47:06;;;;;;;32.00;16.92;;;11.50;56.20;;;;;;5112301;28;20023;-71
2021/04/05 12:49:36;;;;;;;28.63;13.75;;;11.00;56.10;;;;;;5111771;28;20027;-71
2021/04/05 12:52:09;;;;;;;40.83;18.85;;;11.10;57.00;;;;;;5111034;28;20098;-71
2021/04/05 12:54:42;;;;;;;29.23;15.13;;;11.10;56.30;;;;;;5112319;28;20019;-71
2021/04/05 12:57:10;;;;;;;23.45;13.20;;;11.00;57.80;;;;;;5111683;28;20054;-75
2021/04/05 12:59:37;;;;;;;23.50;11.98;;;10.90;58.10;;;;;;5094822;28;20035;-75
2021/04/05 13:02:15;;;;;;;31.48;12.73;;;10.90;58.70;;;;;;5112990;28;20489;-75
2021/04/05 13:04:51;;;;;;;17.75;11.13;;;10.80;57.20;;;;;;5111783;28;20035;-74
2021/04/05 13:07:22;;;;;;;17.05;9.57;;;10.70;58.10;;;;;;5112882;28;20023;-74
2021/04/05 13:09:56;;;;;;;13.85;8.13;;;10.70;57.90;;;;;;5093980;28;20051;-74
2021/04/05 13:12:42;;;;;;;19.20;8.38;;;10.60;57.90;;;;;;5095066;28;20027;-74
2021/04/05 13:15:15;;;;;;;14.27;8.23;;;10.70;58.00;;;;;;5111309;28;20027;-74
2021/04/05 13:17:47;;;;;;;11.27;7.40;;;10.60;56.50;;;;;;5111407;28;20040;-75
2021/04/05 13:20:18;;;;;;;15.38;7.85;;;10.50;55.30;;;;;;5094515;28;20035;-74
2021/04/05 13:22:49;;;;;;;;;;;10.20;55.30;;;;;;5112627;28;20028;-76
2021/04/05 13:25:34;;;;;;;9.65;6.03;;;10.10;54.70;;;;;;5113282;28;19907;-75